• Join FlightAware (Why Join?)
  • Login
  • US Flag 
05:38PM EDT


 

Airport Tracker/Info


-or-


 

Live Flight TrackerFlight Track Log ✈ AWE3518 ✈ 14-Jan-2013 ✈ KBDL - KBDL

Flight Track Log - Related Links

Times and Time Zones

All times are in EST time to prevent confusion due to time zone crossing. See the AWE3518 flight status page for this flight to view local times or setup timezone preferences in your user account.

Time Position Orientation Groundspeed Altitude Reporting Facility
EST Latitude Longitude Course Direction KTS MPH feet Rate Location/Type
11:34AM 41.9311 -72.7025 258° West 156 180 600  Level Boston Center
11:35AM 41.9206 -72.7694 258° West 173 199 2,500 1,620 Climbing Boston Center
11:36AM 41.9747 -72.7836 349° North 163 188 4,200 1,800 Climbing Boston Center
11:37AM 42.0478 -72.7475 20° North 199 229 6,100 1,860 Climbing Boston Center
11:38AM 42.1353 -72.7397 North 260 299 8,000 1,860 Climbing Boston Center
11:39AM 42.2103 -72.7400 360° North 290 334 9,900 960 Climbing Boston Center
11:40AM 42.2914 -72.7908 335° Northwest 296 341 10,000 60 Climbing Boston Center
11:41AM 42.2994 -72.8892 276° West 260 299 10,100 360 Climbing Boston Center
11:42AM 42.3531 -72.9992 303° West 299 344 10,800 1,140 Climbing Boston Center
11:43AM 42.3775 -73.1033 288° West 308 354 12,400 1,440 Climbing Boston Center
11:44AM 42.3686 -73.2100 264° West 295 339 13,800 1,380 Climbing Boston Center
11:45AM 42.3556 -73.3056 260° West 290 334 15,200 660 Climbing Boston Center
11:46AM 42.3317 -73.3978 251° West 270 311 15,200 -900 Level Boston Center
11:47AM 42.2717 -73.3689 160° South 302 348 13,700 -2,040 Descending Boston Center
11:48AM 42.2267 -73.2503 117° Southeast 325 374 11,600 -1,380 Descending Boston Center
11:49AM 42.1939 -73.1433 112° Southeast 315 362 11,000 -1,020 Descending Boston Center
11:50AM 42.1758 -73.0144 101° East 298 343 9,400 -1,620 Descending Boston Center
11:51AM 42.1578 -72.9161 104° East 301 346 7,600 -2,040 Descending Boston Center
11:52AM 42.1353 -72.7956 104° East 307 353 5,500 -1,320 Descending Boston Center
11:53AM 42.1125 -72.6836 105° East 303 349 5,000 -780 Descending Boston Center
11:54AM 42.0731 -72.6081 125° Southeast 273 314 4,000 -1,380 Descending Boston Center
11:55AM 42.0189 -72.5714 153° Southeast 231 266 2,400 -1,320 Descending Boston Center
11:56AM 41.9792 -72.6300 228° Southwest 143 165 1,000 -900 Descending Boston Center
11:57AM 41.9625 -72.6550 228° Southwest 135 155 600 -600 Descending Boston Center
11:59AM 41.9333 -72.6833 205° Southwest  Level FlightAware Approximate